Time;durP1;ratioP1;P1;durP2;ratioP2;P2;SDS_P1;SDS_P2;PMS_P1;PMS_P2;Temp;Humidity;BMP_temperature;BMP_pressure;BME280_temperature;BME280_humidity;BME280_pressure;Samples;Min_cycle;Max_cycle;Signal;HPM_P1;HPM_P2
2022/08/31 00:05:02;;;;;;;20.83;17.15;;;;;;;21.31;87.91;99855.41;5085684;28;20043;-29
2022/08/31 00:07:30;;;;;;;20.33;16.60;;;;;;;21.58;86.49;99845.78;5067599;28;20040;-34
2022/08/31 00:09:55;;;;;;;;;;;;;;;21.69;86.53;99870.84;5068162;28;20050;-29
2022/08/31 00:12:21;;;;;;;20.65;16.33;;;;;;;21.47;86.70;99864.13;5085714;28;20363;-29
2022/08/31 00:14:47;;;;;;;22.50;17.90;;;;;;;21.34;85.80;99848.59;5085718;28;20507;-29
2022/08/31 00:17:13;;;;;;;21.60;17.38;;;;;;;21.39;85.44;99857.47;5085518;28;20655;-34
2022/08/31 00:19:39;;;;;;;27.00;17.10;;;;;;;21.41;85.31;99870.69;5084458;28;20115;-29
2022/08/31 00:22:04;;;;;;;26.45;18.60;;;;;;;21.36;84.12;99868.09;5085743;28;20031;-29
2022/08/31 00:24:31;;;;;;;22.23;17.65;;;;;;;21.70;82.97;99856.16;5085648;28;20468;-29
2022/08/31 00:26:56;;;;;;;25.50;18.38;;;;;;;21.83;82.86;99852.66;5088508;28;20026;-30
2022/08/31 00:29:22;;;;;;;20.85;16.52;;;;;;;21.91;82.01;99857.41;5088312;28;20024;-34
2022/08/31 00:31:47;;;;;;;21.48;16.10;;;;;;;21.89;81.50;99851.47;5089696;28;20026;-29
2022/08/31 00:34:13;;;;;;;20.50;16.63;;;;;;;22.13;81.45;99864.06;5089357;28;20107;-29
2022/08/31 00:36:38;;;;;;;19.30;16.60;;;;;;;22.20;80.40;99870.69;5089487;28;20081;-32
2022/08/31 00:39:06;;;;;;;22.20;17.50;;;;;;;22.01;80.10;99870.00;5089483;28;20443;-31
2022/08/31 00:41:35;;;;;;;19.95;17.05;;;;;;;21.86;80.91;99854.78;5088078;28;20624;-32
2022/08/31 00:44:04;;;;;;;23.15;17.08;;;;;;;22.12;79.82;99862.47;5087716;28;20032;-31
2022/08/31 00:46:33;;;;;;;16.92;15.07;;;;;;;22.14;79.96;99868.41;5087884;28;20515;-29
2022/08/31 00:49:08;;;;;;;23.45;16.92;;;;;;;21.98;80.67;99876.00;5088127;28;20152;-34
2022/08/31 00:51:58;;;;;;;19.70;16.27;;;;;;;21.78;81.08;99869.84;5071197;28;20040;-30
2022/08/31 00:54:29;;;;;;;21.95;17.70;;;;;;;21.78;81.62;99871.75;5089396;28;20031;-36
2022/08/31 00:56:55;;;;;;;22.55;16.08;;;;;;;21.57;82.41;99866.66;5088825;28;20032;-29
2022/08/31 00:59:21;;;;;;;21.70;16.90;;;;;;;21.66;82.49;99862.19;5071235;28;20035;-30
2022/08/31 01:01:47;;;;;;;22.45;18.05;;;;;;;22.03;80.31;99867.78;5070999;28;20480;-35
2022/08/31 01:04:13;;;;;;;23.48;17.90;;;;;;;21.79;80.76;99854.38;5088998;28;20056;-29
2022/08/31 01:06:39;;;;;;;19.90;16.30;;;;;;;21.74;81.15;99849.03;5088970;28;20108;-30
2022/08/31 01:09:07;;;;;;;23.27;18.58;;;;;;;21.82;79.84;99840.19;5087343;28;20044;-34
2022/08/31 01:11:33;;;;;;;;;;;;;;;21.73;79.87;99858.28;5070869;28;20036;-33
2022/08/31 01:13:59;;;;;;;25.63;19.20;;;;;;;21.66;80.12;99851.34;5089023;28;19991;-29
2022/08/31 01:16:33;;;;;;;25.00;17.88;;;;;;;21.60;79.87;99852.53;5070598;28;20127;-33
2022/08/31 01:19:02;;;;;;;26.35;19.33;;;;;;;21.48;80.25;99849.47;5087324;28;20028;-29
2022/08/31 01:21:35;;;;;;;24.55;17.48;;;;;;;21.23;81.30;99831.69;5070452;28;20039;-29
2022/08/31 01:24:03;;;;;;;24.45;18.58;;;;;;;21.15;81.24;99837.78;5087086;28;20047;-34
2022/08/31 01:26:30;;;;;;;21.58;17.85;;;;;;;21.07;82.22;99839.25;5088712;28;20035;-29
2022/08/31 01:29:01;;;;;;;22.83;18.35;;;;;;;20.91;83.75;99819.69;5088360;28;20024;-31
2022/08/31 01:31:42;;;;;;;28.15;19.17;;;;;;;21.15;83.00;99827.72;5070356;28;20027;-29
2022/08/31 01:34:08;;;;;;;26.02;17.77;;;;;;;21.20;82.49;99822.22;5070286;28;20113;-30
2022/08/31 01:36:35;;;;;;;22.67;17.92;;;;;;;21.33;80.00;99827.97;5087679;28;20777;-30
2022/08/31 01:39:02;;;;;;;23.92;18.23;;;;;;;21.44;79.95;99837.59;5088381;28;20480;-30
2022/08/31 01:41:28;;;;;;;24.67;18.80;;;;;;;21.34;79.47;99843.16;5088489;28;20496;-33
2022/08/31 01:43:55;;;;;;;26.25;18.58;;;;;;;21.43;80.29;99844.94;5088142;28;20031;-30
2022/08/31 01:46:20;;;;;;;21.50;17.50;;;;;;;21.57;80.10;99842.25;5088147;28;20106;-33
2022/08/31 01:48:47;;;;;;;24.30;17.73;;;;;;;21.43;79.56;99830.56;5087908;28;20427;-29
2022/08/31 01:51:16;;;;;;;24.25;19.45;;;;;;;21.67;79.40;99835.84;5069391;28;20088;-34
2022/08/31 01:53:44;;;;;;;35.22;28.52;;;;;;;21.61;79.91;99832.41;5086920;28;20063;-29
2022/08/31 01:56:16;;;;;;;30.30;21.73;;;;;;;21.79;77.78;99832.66;5086801;28;20045;-30
2022/08/31 01:58:41;;;;;;;24.83;18.52;;;;;;;21.68;78.50;99842.91;5086365;28;20032;-29
2022/08/31 02:01:07;;;;;;;22.73;18.13;;;;;;;21.61;78.82;99835.13;5087623;28;20027;-31
2022/08/31 02:03:33;;;;;;;25.48;19.25;;;;;;;21.73;77.06;99842.00;5086110;28;20496;-31
2022/08/31 02:06:06;;;;;;;22.52;19.27;;;;;;;21.56;79.72;99835.22;5088015;28;20057;-30
2022/08/31 02:08:31;;;;;;;26.55;18.80;;;;;;;21.40;79.02;99847.41;5086270;28;20028;-31
2022/08/31 02:10:56;;;;;;;26.90;19.15;;;;;;;21.44;80.46;99837.59;5087496;28;20460;-29
2022/08/31 02:13:22;;;;;;;28.30;19.42;;;;;;;21.60;78.32;99819.97;5087511;28;20028;-34
2022/08/31 02:15:47;;;;;;;25.50;19.33;;;;;;;21.54;79.64;99842.06;5087229;28;20472;-30
2022/08/31 02:18:13;;;;;;;26.58;18.75;;;;;;;21.64;78.73;99820.97;5087437;28;20029;-29
2022/08/31 02:20:38;;;;;;;21.75;17.83;;;;;;;21.45;79.73;99822.91;5087414;28;20024;-29
2022/08/31 02:23:04;;;;;;;22.35;17.77;;;;;;;21.65;79.75;99844.28;5087406;28;20507;-29
2022/08/31 02:25:30;;;;;;;25.48;18.45;;;;;;;21.71;79.22;99841.50;5087334;28;20032;-30
2022/08/31 02:27:55;;;;;;;23.70;19.00;;;;;;;21.87;78.81;99835.47;5085858;28;20088;-29
2022/08/31 02:30:21;;;;;;;24.40;19.60;;;;;;;21.61;79.51;99821.56;5087288;28;20032;-30
2022/08/31 02:32:46;;;;;;;22.52;19.65;;;;;;;21.54;79.58;99842.84;5085476;28;20028;-31
2022/08/31 02:35:12;;;;;;;24.17;19.25;;;;;;;21.57;79.50;99830.59;5087439;28;20059;-29
2022/08/31 02:37:37;;;;;;;24.27;19.50;;;;;;;21.57;79.68;99849.59;5068936;28;20020;-29
2022/08/31 02:40:06;;;;;;;26.23;19.55;;;;;;;21.58;80.28;99845.78;5087368;28;20063;-35
2022/08/31 02:42:32;;;;;;;26.58;19.50;;;;;;;21.83;78.92;99855.38;5086840;28;20050;-32
2022/08/31 02:44:57;;;;;;;25.80;19.95;;;;;;;22.00;76.87;99831.16;5086457;28;20487;-31
2022/08/31 02:47:23;;;;;;;23.00;19.10;;;;;;;22.11;76.63;99839.09;5086766;28;20399;-34
2022/08/31 02:49:48;;;;;;;22.90;18.95;;;;;;;21.78;77.55;99845.44;5086505;28;20028;-30
2022/08/31 02:52:14;;;;;;;24.20;17.98;;;;;;;21.74;78.98;99854.44;5086826;28;20020;-32
2022/08/31 02:54:39;;;;;;;23.35;18.38;;;;;;;22.00;77.90;99842.03;5086900;28;20556;-29
2022/08/31 02:57:05;;;;;;;23.33;18.80;;;;;;;21.62;78.79;99838.66;5086527;28;20059;-36
2022/08/31 02:59:30;;;;;;;26.15;18.92;;;;;;;21.58;78.75;99837.66;5086584;28;20048;-30
2022/08/31 03:01:56;;;;;;;23.27;17.52;;;;;;;21.63;79.45;99846.47;5086554;28;20051;-29
2022/08/31 03:04:21;;;;;;;23.27;17.20;;;;;;;21.63;78.85;99835.63;5086800;28;20115;-32
2022/08/31 03:06:47;;;;;;;23.17;19.13;;;;;;;21.44;78.65;99848.47;5086647;28;20111;-32
2022/08/31 03:09:14;;;;;;;23.88;18.70;;;;;;;21.28;79.40;99851.38;5086805;28;20107;-30
2022/08/31 03:11:40;;;;;;;22.83;18.97;;;;;;;20.87;81.37;99841.13;5085326;28;20031;-29
2022/08/31 03:14:05;;;;;;;25.92;19.02;;;;;;;20.71;82.68;99842.44;5086739;28;20255;-31
2022/08/31 03:16:31;;;;;;;25.15;19.48;;;;;;;20.64;84.37;99856.38;5086458;28;20032;-31
2022/08/31 03:18:57;;;;;;;24.83;20.23;;;;;;;20.84;82.74;99852.56;5086597;28;20034;-29
2022/08/31 03:21:22;;;;;;;28.20;19.65;;;;;;;20.59;83.62;99851.00;5086455;28;20038;-30
2022/08/31 03:23:48;;;;;;;22.70;19.23;;;;;;;20.75;82.41;99858.94;5086494;28;20115;-35
2022/08/31 03:26:13;;;;;;;21.90;19.40;;;;;;;20.57;82.87;99842.31;5086564;28;20027;-29
2022/08/31 03:28:39;;;;;;;22.40;18.25;;;;;;;20.63;83.41;99849.31;5086115;28;20027;-29
2022/08/31 03:31:08;;;;;;;25.63;18.70;;;;;;;20.35;85.81;99848.31;5085748;28;20822;-32
2022/08/31 03:33:34;;;;;;;25.83;18.45;;;;;;;20.38;86.97;99844.22;5085166;28;20020;-28
2022/08/31 03:36:01;;;;;;;21.15;17.75;;;;;;;20.55;85.36;99854.56;5067993;28;20035;-29
2022/08/31 03:38:27;;;;;;;25.07;18.37;;;;;;;20.49;85.25;99848.38;5067956;28;20032;-29
2022/08/31 03:40:52;;;;;;;22.92;19.08;;;;;;;20.27;84.78;99832.69;5086144;28;20024;-28
2022/08/31 03:43:20;;;;;;;26.30;18.85;;;;;;;20.41;84.60;99851.75;5086172;28;20132;-33
2022/08/31 03:45:46;;;;;;;23.30;19.83;;;;;;;20.41;84.86;99844.44;5085959;28;20056;-30
2022/08/31 03:48:11;;;;;;;27.60;18.88;;;;;;;20.48;85.78;99861.13;5067920;28;20035;-32
2022/08/31 03:50:37;;;;;;;22.77;18.80;;;;;;;20.09;87.86;99846.97;5086285;28;20110;-30
2022/08/31 03:53:04;;;;;;;24.88;19.52;;;;;;;20.23;88.15;99856.03;5067478;28;20031;-33
2022/08/31 03:55:31;;;;;;;23.30;18.60;;;;;;;20.22;86.24;99840.88;5084522;28;20024;-29
2022/08/31 03:57:57;;;;;;;23.55;17.25;;;;;;;20.40;85.71;99852.84;5067515;28;20051;-31
2022/08/31 04:00:24;;;;;;;23.33;19.13;;;;;;;20.71;84.83;99863.31;5088120;28;20411;-31
2022/08/31 04:02:49;;;;;;;24.60;18.38;;;;;;;20.55;85.31;99868.91;5090163;28;20032;-30
2022/08/31 04:05:16;;;;;;;21.45;17.13;;;;;;;20.52;85.36;99855.94;5090085;28;20453;-29
2022/08/31 04:07:42;;;;;;;21.17;18.05;;;;;;;20.48;87.49;99876.59;5071884;28;20026;-29
2022/08/31 04:10:12;;;;;;;25.83;18.65;;;;;;;20.58;87.17;99868.38;5088530;28;20020;-30
2022/08/31 04:12:38;;;;;;;23.65;18.20;;;;;;;20.71;85.25;99864.13;5071705;28;20114;-29
2022/08/31 04:15:04;;;;;;;21.38;17.83;;;;;;;20.89;85.27;99875.28;5071707;28;20119;-33
2022/08/31 04:17:29;;;;;;;22.45;18.77;;;;;;;20.83;85.91;99869.94;5088465;28;20114;-30
2022/08/31 04:19:55;;;;;;;23.13;18.67;;;;;;;20.85;86.11;99859.59;5088419;28;20123;-31
2022/08/31 04:22:20;;;;;;;22.98;18.52;;;;;;;20.92;86.08;99875.50;5089750;28;20479;-31
2022/08/31 04:24:46;;;;;;;23.10;18.08;;;;;;;20.96;84.61;99862.16;5089400;28;20073;-29
2022/08/31 04:27:11;;;;;;;27.95;19.90;;;;;;;20.83;85.58;99875.34;5089367;28;20020;-29
2022/08/31 04:29:38;;;;;;;24.45;20.27;;;;;;;20.82;86.23;99873.75;5090001;28;20039;-29
2022/08/31 04:32:04;;;;;;;25.17;20.02;;;;;;;20.91;86.08;99873.09;5088309;28;20036;-30
2022/08/31 04:34:29;;;;;;;22.85;18.98;;;;;;;20.89;86.94;99875.28;5089600;28;20043;-36
2022/08/31 04:36:54;;;;;;;25.00;18.77;;;;;;;21.08;85.95;99873.38;5089218;28;20028;-29
2022/08/31 04:39:21;;;;;;;21.67;18.17;;;;;;;21.13;85.23;99859.75;5089520;28;20028;-29
2022/08/31 04:41:47;;;;;;;23.83;18.80;;;;;;;21.16;85.49;99874.63;5087846;28;20028;-30
2022/08/31 04:44:13;;;;;;;20.92;18.33;;;;;;;20.97;86.19;99859.16;5071182;28;20637;-29
2022/08/31 04:46:39;;;;;;;22.08;19.05;;;;;;;20.91;86.47;99851.41;5084631;28;20087;-31
2022/08/31 04:49:06;;;;;;;23.95;18.92;;;;;;;21.04;86.21;99866.94;5069343;28;20453;-31
2022/08/31 04:51:35;;;;;;;22.75;18.42;;;;;;;20.93;86.18;99854.63;5069055;28;20034;-32
2022/08/31 04:54:07;;;;;;;24.00;19.02;;;;;;;21.09;86.08;99864.16;5067578;28;20039;-30
2022/08/31 04:56:36;;;;;;;22.20;18.60;;;;;;;21.14;85.74;99855.13;5068817;28;20028;-35
2022/08/31 04:59:04;;;;;;;24.58;18.83;;;;;;;21.28;85.36;99875.78;5068626;28;20025;-29
2022/08/31 05:01:33;;;;;;;24.00;19.17;;;;;;;21.13;85.12;99859.75;5084455;28;20025;-34
2022/08/31 05:04:00;;;;;;;23.15;19.02;;;;;;;21.21;86.21;99864.50;5067191;28;20028;-29
2022/08/31 05:06:29;;;;;;;24.52;18.65;;;;;;;21.34;84.43;99865.66;5067309;28;20039;-30
2022/08/31 05:09:02;;;;;;;23.20;18.95;;;;;;;21.32;83.27;99876.00;5066663;28;20029;-29
2022/08/31 05:11:28;;;;;;;21.75;19.10;;;;;;;21.14;84.24;99874.91;5066591;28;20122;-32
2022/08/31 05:13:56;;;;;;;22.17;18.48;;;;;;;21.33;83.69;99871.38;5067151;28;20021;-31
2022/08/31 05:16:22;;;;;;;23.90;18.52;;;;;;;21.35;86.00;99880.84;5084064;28;20119;-30
2022/08/31 05:18:49;;;;;;;22.23;18.65;;;;;;;21.32;86.31;99888.75;5068208;28;20189;-31
2022/08/31 05:21:27;;;;;;;22.35;18.58;;;;;;;21.21;86.08;99866.44;5067024;28;20534;-30
2022/08/31 05:23:53;;;;;;;28.58;19.13;;;;;;;21.54;85.91;99893.59;5068402;28;20021;-31
2022/08/31 05:26:26;;;;;;;22.00;19.13;;;;;;;21.55;86.38;99882.44;5067114;28;20036;-29
2022/08/31 05:28:51;;;;;;;24.02;19.15;;;;;;;21.78;84.79;99890.75;5068044;28;20025;-29
2022/08/31 05:31:17;;;;;;;24.83;18.52;;;;;;;21.71;84.69;99874.06;5068463;28;20031;-30
2022/08/31 05:33:43;;;;;;;23.83;17.92;;;;;;;22.00;82.13;99890.91;5066993;28;20556;-29
2022/08/31 05:36:11;;;;;;;24.48;17.33;;;;;;;22.13;81.03;99897.47;5066581;28;20039;-32
2022/08/31 05:38:37;;;;;;;24.20;17.52;;;;;;;22.13;82.05;99888.50;5066922;28;20056;-31
2022/08/31 05:41:04;;;;;;;19.52;16.55;;;;;;;22.48;81.95;99899.84;5066525;28;20530;-29
2022/08/31 05:43:31;;;;;;;18.67;15.65;;;;;;;22.90;78.78;99878.81;5066615;28;20039;-33
2022/08/31 05:45:57;;;;;;;21.52;16.58;;;;;;;23.04;77.14;99891.31;5066012;28;20486;-29
2022/08/31 05:48:23;;;;;;;18.23;16.02;;;;;;;23.31;76.31;99888.81;5066574;28;20032;-32
2022/08/31 05:50:49;;;;;;;20.00;17.15;;;;;;;23.22;76.76;99894.97;5066189;28;20033;-29
2022/08/31 05:53:15;;;;;;;21.15;17.23;;;;;;;23.19;76.28;99901.06;5068102;28;20036;-32
2022/08/31 05:55:40;;;;;;;22.67;17.70;;;;;;;23.39;75.82;99901.69;5068004;28;20113;-35
2022/08/31 05:58:06;;;;;;;21.90;18.33;;;;;;;23.31;75.50;99883.38;5067912;28;20070;-32
2022/08/31 06:00:32;;;;;;;21.38;17.00;;;;;;;23.42;75.13;99892.91;5067662;28;20020;-30
2022/08/31 06:02:58;;;;;;;22.08;17.58;;;;;;;23.02;75.17;99890.00;5065849;28;20523;-30
2022/08/31 06:05:23;;;;;;;21.30;18.08;;;;;;;23.18;75.65;99885.81;5066246;28;20032;-31
2022/08/31 06:07:49;;;;;;;26.50;18.75;;;;;;;23.31;74.57;99895.03;5067790;28;20064;-29
2022/08/31 06:10:17;;;;;;;23.38;18.98;;;;;;;23.09;76.66;99893.13;5066311;28;20404;-29
2022/08/31 06:12:43;;;;;;;24.08;18.42;;;;;;;22.96;76.57;99874.88;5066222;28;20033;-32
2022/08/31 06:15:10;;;;;;;24.30;18.23;;;;;;;23.21;74.06;99879.78;5067387;28;20043;-29
2022/08/31 06:17:36;;;;;;;21.33;18.60;;;;;;;23.19;73.85;99870.31;5065826;28;20024;-31
2022/08/31 06:20:04;;;;;;;22.92;16.75;;;;;;;23.33;73.55;99886.56;5066086;28;20106;-34
2022/08/31 06:22:30;;;;;;;22.98;18.23;;;;;;;23.33;73.56;99883.84;5082468;28;20495;-29
2022/08/31 06:24:55;;;;;;;22.88;17.77;;;;;;;23.56;73.78;99877.31;5066082;28;20035;-30
2022/08/31 06:27:21;;;;;;;20.13;16.42;;;;;;;23.50;72.76;99845.91;5067271;28;20032;-31
2022/08/31 06:29:48;;;;;;;18.63;16.20;;;;;;;23.58;72.05;99877.81;5066929;28;20476;-32
2022/08/31 06:32:14;;;;;;;24.30;16.50;;;;;;;23.54;72.23;99863.22;5066910;28;20472;-36
2022/08/31 06:34:41;;;;;;;21.52;18.20;;;;;;;23.56;72.25;99863.72;5065676;28;20032;-29
2022/08/31 06:37:09;;;;;;;20.73;18.17;;;;;;;23.76;73.37;99867.00;5065630;28;20116;-34
2022/08/31 06:39:35;;;;;;;20.45;16.75;;;;;;;23.82;72.65;99868.50;5065551;28;20415;-29
2022/08/31 06:42:02;;;;;;;22.40;16.95;;;;;;;24.09;73.13;99877.63;5065598;28;20039;-29
2022/08/31 06:44:28;;;;;;;19.30;16.40;;;;;;;24.11;71.44;99875.38;5066747;28;20478;-30
2022/08/31 06:46:54;;;;;;;21.92;16.95;;;;;;;24.09;70.89;99869.44;5064797;28;20113;-29
2022/08/31 06:49:20;;;;;;;23.40;16.92;;;;;;;24.38;71.48;99869.72;5065555;28;20532;-33
2022/08/31 06:51:46;;;;;;;20.92;16.77;;;;;;;24.67;70.13;99879.28;5066598;28;20031;-29
2022/08/31 06:54:18;;;;;;;24.60;15.05;;;;;;;24.79;67.63;99874.00;5066728;28;20024;-29
2022/08/31 06:56:43;;;;;;;18.65;14.05;;;;;;;24.78;66.01;99875.13;5066488;28;20048;-32
2022/08/31 06:59:09;;;;;;;18.15;14.27;;;;;;;25.11;67.31;99869.22;5066511;28;20028;-30
2022/08/31 07:01:35;;;;;;;17.92;14.73;;;;;;;25.56;65.76;99881.72;5066195;28;20024;-29
2022/08/31 07:04:04;;;;;;;18.73;13.93;;;;;;;25.62;61.94;99878.53;5065093;28;20025;-35
2022/08/31 07:06:34;;;;;;;16.13;13.52;;;;;;;25.64;62.71;99891.84;5064865;28;20090;-29
2022/08/31 07:09:02;;;;;;;17.55;13.73;;;;;;;25.76;62.92;99872.84;5081639;28;20025;-35
2022/08/31 07:11:39;;;;;;;15.93;13.13;;;;;;;25.93;61.84;99884.88;5066244;28;20492;-32
2022/08/31 07:14:11;;;;;;;15.68;12.38;;;;;;;26.08;63.08;99878.91;5064936;28;20514;-29
2022/08/31 07:16:37;;;;;;;15.32;12.80;;;;;;;26.08;60.94;99873.44;5066346;28;20036;-32
2022/08/31 07:19:05;;;;;;;17.58;12.95;;;;;;;25.94;59.69;99868.16;5064849;28;20025;-29
2022/08/31 07:21:42;;;;;;;18.95;14.10;;;;;;;25.99;59.55;99872.66;5064740;28;20040;-33
2022/08/31 07:24:09;;;;;;;;;;;;;;;26.20;61.06;99865.34;5066534;28;20800;-33
2022/08/31 07:26:38;;;;;;;16.70;13.13;;;;;;;26.42;60.25;99885.34;5064267;28;19917;-32
2022/08/31 07:29:05;;;;;;;17.98;13.00;;;;;;;26.53;60.10;99877.56;5064478;28;20086;-29
2022/08/31 07:31:45;;;;;;;16.30;13.55;;;;;;;26.51;59.13;99875.16;5064461;28;20021;-30
2022/08/31 07:34:12;;;;;;;17.25;12.35;;;;;;;26.49;57.51;99862.94;5065639;28;20033;-32
2022/08/31 07:42:08;;;;;;;15.00;13.07;;;;;;;26.36;59.12;99860.13;5064559;28;20028;-33
2022/08/31 07:42:11;;;;;;;14.57;12.73;;;;;;;26.66;59.27;99871.06;5065746;28;20040;-35
2022/08/31 07:44:42;;;;;;;15.15;13.13;;;;;;;26.84;58.50;99867.06;5064414;28;20454;-32
2022/08/31 07:47:13;;;;;;;14.88;12.25;;;;;;;26.97;57.79;99869.88;5065991;28;20039;-30
2022/08/31 07:49:49;;;;;;;14.70;12.43;;;;;;;27.15;57.67;99871.34;5066362;28;20049;-30
2022/08/31 07:52:19;;;;;;;17.27;13.10;;;;;;;27.35;59.11;99850.59;5064800;28;20141;-36
2022/08/31 07:54:45;;;;;;;18.50;14.43;;;;;;;27.53;58.94;99839.47;5065940;28;20032;-41
2022/08/31 07:57:12;;;;;;;15.88;13.30;;;;;;;27.73;57.76;99866.00;5066030;28;20024;-29
2022/08/31 07:59:38;;;;;;;15.98;12.50;;;;;;;27.52;56.68;99852.34;5066070;28;20048;-32
2022/08/31 08:02:04;;;;;;;15.27;12.77;;;;;;;27.71;57.29;99856.53;5064444;28;20036;-32
2022/08/31 08:04:30;;;;;;;18.17;13.80;;;;;;;27.72;55.84;99849.88;5066363;28;20440;-32
2022/08/31 08:06:59;;;;;;;15.52;13.80;;;;;;;27.69;56.98;99848.63;5064593;28;20071;-37
2022/08/31 08:09:27;;;;;;;17.55;12.50;;;;;;;27.53;57.82;99842.22;5081541;28;20037;-30
2022/08/31 08:11:56;;;;;;;15.68;13.15;;;;;;;27.79;57.37;99847.41;5064599;28;20020;-30
2022/08/31 08:14:22;;;;;;;16.85;13.30;;;;;;;28.00;57.82;99858.31;5064336;28;20485;-33
2022/08/31 08:16:47;;;;;;;15.18;13.15;;;;;;;28.04;57.82;99840.03;5065919;28;20021;-34
2022/08/31 08:19:14;;;;;;;15.57;12.63;;;;;;;28.11;54.61;99829.28;5066291;28;20032;-29
2022/08/31 08:21:40;;;;;;;17.20;12.38;;;;;;;27.88;54.12;99850.84;5047764;28;20119;-33
2022/08/31 08:24:05;;;;;;;13.90;12.20;;;;;;;28.12;54.82;99841.88;5065683;28;20027;-33
2022/08/31 08:26:31;;;;;;;15.43;12.68;;;;;;;28.19;55.54;99824.84;5065759;28;20093;-30
2022/08/31 08:28:56;;;;;;;13.88;11.90;;;;;;;28.27;55.18;99837.63;5065258;28;20068;-29
2022/08/31 08:31:22;;;;;;;14.32;11.82;;;;;;;28.55;54.51;99831.47;5065938;28;20029;-34
2022/08/31 08:33:49;;;;;;;14.23;11.77;;;;;;;28.84;52.19;99827.63;5065954;28;20032;-30
2022/08/31 08:36:17;;;;;;;15.48;12.35;;;;;;;29.03;52.76;99854.44;5064456;28;20484;-31
2022/08/31 08:38:45;;;;;;;14.75;12.25;;;;;;;29.22;53.49;99838.16;5065764;28;20028;-31
2022/08/31 08:41:25;;;;;;;15.73;11.75;;;;;;;29.23;52.21;99850.72;5063861;28;20028;-31
2022/08/31 08:43:57;;;;;;;16.52;13.20;;;;;;;29.30;51.87;99832.84;5065588;28;20032;-29
2022/08/31 08:46:26;;;;;;;13.80;11.35;;;;;;;29.30;49.38;99841.91;5080602;28;20059;-30
2022/08/31 08:48:53;;;;;;;14.52;12.00;;;;;;;29.42;49.11;99830.84;5087861;28;20117;-34
2022/08/31 08:51:23;;;;;;;14.63;11.63;;;;;;;29.20;51.13;99834.94;5081919;28;20031;-29
2022/08/31 08:53:54;;;;;;;14.88;12.25;;;;;;;29.39;51.32;99841.72;5109337;28;20106;-29
2022/08/31 08:56:21;;;;;;;12.18;10.57;;;;;;;29.55;49.24;99823.31;5091416;28;20024;-31
2022/08/31 08:58:46;;;;;;;12.90;10.80;;;;;;;29.39;50.49;99822.50;5109696;28;20084;-31
2022/08/31 09:01:21;;;;;;;19.25;11.20;;;;;;;29.10;49.66;99816.19;5109495;28;20088;-29
2022/08/31 09:03:53;;;;;;;12.98;10.10;;;;;;;29.50;47.95;99826.31;5091128;28;20024;-38
2022/08/31 09:06:42;;;;;;;13.35;10.40;;;;;;;29.86;49.28;99829.22;5109416;28;20080;-32
2022/08/31 09:09:17;;;;;;;14.93;10.27;;;;;;;29.99;47.81;99827.97;5109654;28;20027;-30
2022/08/31 09:12:19;;;;;;;12.45;10.27;;;;;;;30.08;49.76;99825.03;5090958;28;20085;-33
2022/08/31 09:15:06;;;;;;;14.93;10.07;;;;;;;30.44;46.85;99815.69;5090355;28;20051;-29
2022/08/31 09:17:34;;;;;;;;;;;;;;;30.69;44.60;99810.75;5109908;28;20591;-29
2022/08/31 09:20:03;;;;;;;12.90;8.45;;;;;;;30.76;45.43;99797.09;5109199;28;20206;-31
2022/08/31 09:22:45;;;;;;;14.52;9.75;;;;;;;30.70;45.79;99804.06;5108773;28;20020;-29
2022/08/31 09:25:13;;;;;;;13.15;9.13;;;;;;;30.40;45.13;99801.03;5108829;28;20036;-31
2022/08/31 09:27:46;;;;;;;13.85;9.20;;;;;;;30.61;46.02;99790.50;5091072;28;20391;-30
2022/08/31 09:30:30;;;;;;;11.27;8.95;;;;;;;31.04;45.28;99785.13;5109042;28;20061;-30
2022/08/31 09:32:56;;;;;;;13.77;9.00;;;;;;;31.06;42.65;99788.28;5107004;28;20106;-34
2022/08/31 09:35:39;;;;;;;11.98;8.50;;;;;;;31.17;42.79;99805.81;5083520;28;20024;-32
2022/08/31 09:38:10;;;;;;;12.45;9.50;;;;;;;31.33;45.50;99794.69;5108723;28;20024;-31
2022/08/31 09:40:47;;;;;;;13.95;8.68;;;;;;;31.28;42.38;99792.22;5108299;28;20035;-29
2022/08/31 09:43:12;;;;;;;;;;;;;;;31.35;42.51;99794.34;5090263;28;20031;-33
2022/08/31 09:46:01;;;;;;;13.40;9.70;;;;;;;31.56;45.58;99789.22;5108483;28;19923;-32
2022/08/31 09:48:50;;;;;;;20.98;14.48;;;;;;;31.80;41.23;99793.56;5089211;28;20418;-31
2022/08/31 09:51:29;;;;;;;13.63;7.88;;;;;;;32.02;41.71;99783.69;5090440;28;20024;-36
2022/08/31 09:56:55;;;;;;;13.55;8.20;;;;;;;32.48;39.98;99788.28;5108636;28;20042;-31
2022/08/31 09:59:38;;;;;;;10.70;8.32;;;;;;;32.33;40.39;99770.75;5089963;28;20027;-32
2022/08/31 10:02:11;;;;;;;12.98;8.25;;;;;;;32.63;37.24;99781.81;5089823;28;20510;-32
2022/08/31 10:05:05;;;;;;;13.80;9.05;;;;;;;32.92;37.72;99768.34;5107910;28;20398;-35
2022/08/31 10:07:42;;;;;;;15.50;7.75;;;;;;;33.02;36.85;99772.41;5089905;28;20476;-33
2022/08/31 10:10:23;;;;;;;12.45;8.00;;;;;;;32.86;38.01;99752.50;5089803;28;20027;-30
2022/08/31 10:12:57;;;;;;;13.40;7.70;;;;;;;32.72;38.35;99751.16;5089439;28;20038;-30
2022/08/31 10:15:43;;;;;;;10.25;7.88;;;;;;;33.12;37.92;99744.13;5107826;28;20027;-34
2022/08/31 10:18:42;;;;;;;10.32;7.65;;;;;;;33.12;37.05;99737.78;5107776;28;20474;-30
2022/08/31 10:21:20;;;;;;;10.82;7.30;;;;;;;32.77;38.41;99727.91;5107807;28;20518;-31
2022/08/31 10:23:55;;;;;;;15.68;8.32;;;;;;;32.80;37.04;99732.69;5089096;28;20035;-37
2022/08/31 10:26:32;;;;;;;12.75;7.38;;;;;;;32.91;36.16;99733.59;5108030;28;20027;-30
2022/08/31 10:29:05;;;;;;;12.80;7.70;;;;;;;33.17;37.07;99718.91;5089057;28;20028;-31
2022/08/31 10:31:45;;;;;;;12.50;7.82;;;;;;;33.23;38.18;99730.41;5089361;28;20031;-34
2022/08/31 10:37:42;;;;;;;11.27;7.80;;;;;;;33.17;36.29;99715.34;5107565;28;20032;-31
2022/08/31 10:40:12;;;;;;;11.95;8.82;;;;;;;33.31;38.81;99715.47;5089209;28;20544;-31
2022/08/31 10:42:43;;;;;;;11.32;7.82;;;;;;;33.33;36.16;99706.81;5088709;28;20054;-30
2022/08/31 10:45:23;;;;;;;9.90;7.78;;;;;;;33.32;38.66;99708.75;5088693;28;20090;-30
2022/08/31 10:47:51;;;;;;;12.98;7.85;;;;;;;33.43;36.61;99719.91;5107218;28;20024;-31
2022/08/31 10:50:32;;;;;;;15.05;7.80;;;;;;;33.39;35.03;99716.34;5089065;28;20112;-42
2022/08/31 10:53:16;;;;;;;11.45;7.55;;;;;;;33.81;35.56;99706.78;5107497;28;20026;-31
2022/08/31 10:56:16;;;;;;;13.20;8.00;;;;;;;34.18;34.43;99687.28;5088983;28;20031;-34
2022/08/31 10:58:59;;;;;;;13.50;8.02;;;;;;;34.28;35.55;99702.31;5088508;28;20111;-36
2022/08/31 11:01:41;;;;;;;15.70;7.95;;;;;;;34.54;35.91;99706.00;5107211;28;20031;-29
2022/08/31 11:04:31;;;;;;;12.13;7.18;;;;;;;34.87;32.09;99710.44;5107045;28;20024;-29
2022/08/31 11:07:06;;;;;;;11.93;7.18;;;;;;;34.50;32.30;99707.94;5106601;28;20547;-34
2022/08/31 11:10:07;;;;;;;10.13;7.07;;;;;;;34.06;33.65;99714.44;5088037;28;20139;-29
2022/08/31 11:12:41;;;;;;;11.20;6.82;;;;;;;34.07;35.26;99700.22;5019983;28;20043;-34
2022/08/31 11:15:43;;;;;;;11.23;7.25;;;;;;;34.76;32.67;99699.34;5088316;28;20122;-33
2022/08/31 11:18:34;;;;;;;11.02;7.10;;;;;;;34.63;34.97;99667.63;5088451;28;20053;-35
2022/08/31 11:21:45;;;;;;;13.57;7.28;;;;;;;35.01;35.99;99693.06;5106235;28;20039;-35
2022/08/31 11:24:27;;;;;;;12.18;6.50;;;;;;;34.43;33.65;99689.34;5088169;28;20035;-29
2022/08/31 11:27:10;;;;;;;12.07;7.63;;;;;;;34.47;35.68;99690.16;5106463;28;20031;-33
2022/08/31 11:29:45;;;;;;;9.73;6.90;;;;;;;34.73;33.84;99672.44;5106537;28;20020;-30
2022/08/31 11:32:22;;;;;;;13.57;8.00;;;;;;;35.17;31.00;99685.19;5088148;28;20034;-37
2022/08/31 11:34:57;;;;;;;14.38;6.78;;;;;;;35.48;31.39;99682.03;5088131;28;20740;-30
2022/08/31 11:37:49;;;;;;;11.73;7.03;;;;;;;35.53;33.52;99679.66;5088196;28;20023;-33
2022/08/31 11:40:41;;;;;;;14.80;7.82;;;;;;;35.63;32.87;99671.69;5093015;28;20104;-29
2022/08/31 11:43:12;;;;;;;12.05;6.88;;;;;;;35.71;31.83;99662.97;5105921;28;20033;-31
2022/08/31 11:45:39;;;;;;;14.52;6.90;;;;;;;35.91;30.76;99674.44;5106426;28;20054;-32